Weather History for Atka, AK

Change the Weather History Date:

Friday, April 12, 2013

  Actual Average (PADK) Record (PADK)
Temperature  
Mean Temperature 30 °F -  
Max Temperature 35 °F 40 °F 49 °F (1986)
Min Temperature 26 °F 32 °F 24 °F (1992)
Degree Days  
Heating Degree Days 34    
Moisture  
Dew Point 22 °F    
Average Humidity 62    
Maximum Humidity 80    
Minimum Humidity 56    
Precipitation  
Precipitation 0.00 in - - ()
Sea Level Pressure  
Sea Level Pressure 30.61 in    
Wind  
Wind Speed 8 mph (East)    
Max Wind Speed 13 mph    
Max Gust Speed -    
Visibility 10 miles    
Events      
Averages and records for this station are not official NWS values.
T = Trace of Precipitation, MM = Missing Value Source: NWS Daily Summary

Daily Weather History Graph

Daily Weather History Graph

Search for Another Location

Airport:

Trip Planner

Search our weather history database for the weather conditions in past years. The results will help you decide how hot, cold, wet, or windy it might be!

Date:

Astronomy

Apr. 12, 2013 Rise Set
Actual Time 7:45 AM HADT 9:30 PM HADT
Civil Twilight 7:09 AM HADT 10:06 PM HADT
Nautical Twilight 6:25 AM HADT 10:51 PM HADT
Astronomical Twilight 5:35 AM HADT 11:41 PM HADT
Moon 8:46 AM HADT (4/12) No Moon Set
Length of Visible Light 14h 57m
Length of Day
13h 45m
Waxing Crescent, 6% of the Moon is Illuminated
Apr 12
Waxing Crescent
Apr 18
First Quarter
Apr 25
Full
May 2
Last Quarter
May 9
New

Hourly Weather History & Observations

Time (HADT) Temp. Windchill Dew Point Humidity Pressure Visibility Wind Dir Wind Speed Gust Speed Precip Events Conditions
12:16 AM 33.8 °F 25.3 °F 23.0 °F 65% 30.61 in 10.0 mi East 11.5 mph - N/A   Overcast
12:36 AM 33.8 °F 25.3 °F 23.0 °F 65% 30.61 in 10.0 mi East 11.5 mph - N/A   Overcast
12:56 AM 33.8 °F 26.4 °F 23.0 °F 65% 30.61 in 10.0 mi ENE 9.2 mph - N/A   Overcast
1:16 AM 33.8 °F 26.4 °F 23.0 °F 65% 30.61 in 10.0 mi East 9.2 mph - N/A   Overcast
1:36 AM 33.8 °F 25.3 °F 23.0 °F 65% 30.61 in 10.0 mi East 11.5 mph - N/A   Overcast
1:56 AM 33.8 °F 25.8 °F 23.0 °F 65% 30.61 in 10.0 mi East 10.4 mph - N/A   Overcast
2:16 AM 33.8 °F 25.8 °F 23.0 °F 65% 30.61 in 10.0 mi East 10.4 mph - N/A   Overcast
2:36 AM 33.8 °F 26.4 °F 21.2 °F 60% 30.61 in 10.0 mi East 9.2 mph - N/A   Overcast
2:56 AM 32.0 °F 23.6 °F 23.0 °F 69% 30.61 in 10.0 mi East 10.4 mph - N/A   Overcast
3:16 AM 33.8 °F 26.4 °F 21.2 °F 60% 30.61 in 10.0 mi East 9.2 mph - N/A   Overcast
3:36 AM 32.0 °F 24.2 °F 21.2 °F 64% 30.60 in 10.0 mi East 9.2 mph - N/A   Overcast
3:56 AM 32.0 °F 24.8 °F 21.2 °F 64% 30.60 in 10.0 mi East 8.1 mph - N/A   Overcast
4:16 AM 32.0 °F 26.4 °F 21.2 °F 64% 30.60 in 10.0 mi East 5.8 mph - N/A   Overcast
4:36 AM 32.0 °F 24.8 °F 21.2 °F 64% 30.60 in 10.0 mi East 8.1 mph - N/A   Overcast
4:56 AM 32.0 °F 24.8 °F 21.2 °F 64% 30.60 in 10.0 mi East 8.1 mph - N/A   Overcast
5:16 AM 32.0 °F 26.4 °F 21.2 °F 64% 30.60 in 10.0 mi ENE 5.8 mph - N/A   Overcast
5:56 AM 30.2 °F - 23.0 °F 75% 30.60 in 10.0 mi Calm Calm - N/A   Overcast
6:16 AM 28.4 °F - 21.2 °F 74% 30.60 in 10.0 mi Calm Calm - N/A   Mostly Cloudy
6:36 AM 28.4 °F - 21.2 °F 74% 30.60 in 10.0 mi Calm Calm - N/A   Partly Cloudy
6:56 AM 28.4 °F - 21.2 °F 74% 30.61 in 10.0 mi Calm Calm - N/A   Clear
7:16 AM 26.6 °F - 19.4 °F 74% 30.61 in 10.0 mi Calm Calm - N/A   Clear
8:16 AM 26.6 °F - 21.2 °F 80% 30.61 in - Calm Calm - N/A   Overcast
8:36 AM 28.4 °F - 21.2 °F 74% 30.62 in 10.0 mi Calm Calm - N/A   Overcast
8:56 AM 32.0 °F 26.4 °F 23.0 °F 69% 30.62 in 10.0 mi ENE 5.8 mph - N/A   Overcast
9:16 AM 33.8 °F 27.7 °F 21.2 °F 60% 30.62 in 10.0 mi ENE 6.9 mph - N/A   Overcast
9:36 AM 33.8 °F 27.7 °F 23.0 °F 65% 30.62 in 10.0 mi ENE 6.9 mph - N/A   Overcast
9:56 AM 33.8 °F 27.7 °F 21.2 °F 60% 30.62 in 10.0 mi East 6.9 mph - N/A   Overcast
10:16 AM 33.8 °F 27.0 °F 21.2 °F 60% 30.62 in 10.0 mi East 8.1 mph - N/A   Overcast
10:36 AM 33.8 °F 26.4 °F 21.2 °F 60% 30.62 in 10.0 mi East 9.2 mph - N/A   Mostly Cloudy
10:56 AM 33.8 °F 27.7 °F 21.2 °F 60% 30.62 in 10.0 mi ESE 6.9 mph - N/A   Mostly Cloudy
11:16 AM 33.8 °F 27.0 °F 21.2 °F 60% 30.62 in 10.0 mi ESE 8.1 mph - N/A   Mostly Cloudy
11:36 AM 33.8 °F 26.4 °F 23.0 °F 65% 30.62 in 10.0 mi SE 9.2 mph - N/A   Scattered Clouds
11:56 AM 35.6 °F 28.6 °F 21.2 °F 56% 30.62 in 10.0 mi ESE 9.2 mph - N/A   Partly Cloudy
12:16 PM 35.6 °F 29.2 °F 21.2 °F 56% 30.62 in 10.0 mi SE 8.1 mph - N/A   Clear
12:36 PM 35.6 °F 29.2 °F 21.2 °F 56% 30.62 in 10.0 mi SE 8.1 mph - N/A   Clear
12:56 PM 35.6 °F 29.2 °F 23.0 °F 60% 30.62 in 10.0 mi ESE 8.1 mph - N/A   Clear
1:16 PM 35.6 °F 29.9 °F 21.2 °F 56% 30.62 in 10.0 mi ESE 6.9 mph - N/A   Clear
1:36 PM 35.6 °F 29.9 °F 21.2 °F 56% 30.62 in 10.0 mi ESE 6.9 mph - N/A   Clear
1:56 PM 35.6 °F 29.9 °F 21.2 °F 56% 30.62 in 10.0 mi SE 6.9 mph - N/A   Clear
2:16 PM 35.6 °F 29.9 °F 21.2 °F 56% 30.62 in 10.0 mi ESE 6.9 mph - N/A   Partly Cloudy
2:36 PM 35.6 °F 28.0 °F 21.2 °F 56% 30.61 in 10.0 mi ESE 10.4 mph - N/A   Scattered Clouds
2:56 PM 35.6 °F 29.2 °F 21.2 °F 56% 30.61 in 10.0 mi SE 8.1 mph - N/A   Scattered Clouds
3:16 PM 35.6 °F 29.2 °F 21.2 °F 56% 30.61 in 10.0 mi ESE 8.1 mph - N/A   Scattered Clouds
3:36 PM 35.6 °F 29.2 °F 21.2 °F 56% 30.61 in 10.0 mi ESE 8.1 mph - N/A   Scattered Clouds
3:56 PM 35.6 °F 29.2 °F 21.2 °F 56% 30.61 in 10.0 mi ESE 8.1 mph - N/A   Mostly Cloudy
4:16 PM 35.6 °F 29.2 °F 21.2 °F 56% 30.60 in 10.0 mi ESE 8.1 mph - N/A   Mostly Cloudy
4:36 PM 35.6 °F 28.0 °F 21.2 °F 56% 30.60 in 10.0 mi ESE 10.4 mph - N/A   Mostly Cloudy
4:56 PM 35.6 °F 28.0 °F 21.2 °F 56% 30.60 in 10.0 mi ESE 10.4 mph - N/A   Mostly Cloudy
5:16 PM 35.6 °F 27.5 °F 23.0 °F 60% 30.60 in 10.0 mi East 11.5 mph - N/A   Overcast
5:36 PM 35.6 °F 27.1 °F 23.0 °F 60% 30.59 in 10.0 mi ESE 12.7 mph - N/A   Scattered Clouds
5:56 PM 35.6 °F 27.5 °F 21.2 °F 56% 30.59 in 10.0 mi East 11.5 mph - N/A   Clear
6:16 PM 35.6 °F 28.0 °F 21.2 °F 56% 30.59 in 10.0 mi ESE 10.4 mph - N/A   Clear
6:36 PM 35.6 °F 27.1 °F 21.2 °F 56% 30.59 in 10.0 mi ESE 12.7 mph - N/A   Clear
6:56 PM 35.6 °F 27.5 °F 21.2 °F 56% 30.60 in 10.0 mi ESE 11.5 mph - N/A   Partly Cloudy
7:16 PM 35.6 °F 28.0 °F 21.2 °F 56% 30.59 in 10.0 mi ESE 10.4 mph - N/A   Partly Cloudy
7:36 PM 35.6 °F 28.0 °F 21.2 °F 56% 30.59 in 10.0 mi ESE 10.4 mph - N/A   Clear
7:56 PM 33.8 °F 25.3 °F 21.2 °F 60% 30.59 in 10.0 mi ESE 11.5 mph - N/A   Clear
8:16 PM 33.8 °F 26.4 °F 21.2 °F 60% 30.59 in 10.0 mi ESE 9.2 mph - N/A   Partly Cloudy
8:36 PM 33.8 °F 26.4 °F 19.4 °F 56% 30.59 in 10.0 mi East 9.2 mph - N/A   Mostly Cloudy
8:56 PM 33.8 °F 25.8 °F 21.2 °F 60% 30.60 in 10.0 mi East 10.4 mph - N/A   Overcast
9:16 PM 33.8 °F 26.4 °F 21.2 °F 60% 30.60 in 10.0 mi East 9.2 mph - N/A   Scattered Clouds
9:36 PM 33.8 °F 26.4 °F 21.2 °F 60% 30.60 in 10.0 mi East 9.2 mph - N/A   Clear
9:56 PM 33.8 °F 26.4 °F 21.2 °F 60% 30.61 in 10.0 mi East 9.2 mph - N/A   Clear
10:16 PM 32.0 °F 25.6 °F 21.2 °F 64% 30.61 in 10.0 mi East 6.9 mph - N/A   Clear
10:36 PM 32.0 °F 24.8 °F 21.2 °F 64% 30.61 in 10.0 mi East 8.1 mph - N/A   Scattered Clouds
10:56 PM 32.0 °F 25.6 °F 21.2 °F 64% 30.61 in 10.0 mi ENE 6.9 mph - N/A   Mostly Cloudy
11:16 PM 32.0 °F 24.8 °F 21.2 °F 64% 30.61 in 10.0 mi ENE 8.1 mph - N/A   Mostly Cloudy
11:36 PM 33.8 °F 27.7 °F 21.2 °F 60% 30.61 in 10.0 mi ENE 6.9 mph - N/A   Overcast
11:56 PM 33.8 °F 27.0 °F 21.2 °F 60% 30.60 in 10.0 mi ENE 8.1 mph - N/A   Mostly Cloudy